createdAt,value
2022-08-31T00:02:40.409Z,3.00
2022-08-31T00:05:13.178Z,3.10
2022-08-31T00:10:18.646Z,3.30
2022-08-31T00:12:52.084Z,3.10
2022-08-31T00:15:30.214Z,3.00
2022-08-31T00:18:02.243Z,3.20
2022-08-31T00:20:34.933Z,3.60
2022-08-31T00:23:09.141Z,3.50
2022-08-31T00:25:44.662Z,2.90
2022-08-31T00:28:17.869Z,3.10
2022-08-31T00:33:20.186Z,2.80
2022-08-31T00:38:22.977Z,2.90
2022-08-31T00:40:56.218Z,2.60
2022-08-31T00:43:47.273Z,2.60
2022-08-31T00:46:21.772Z,2.90
2022-08-31T00:49:00.389Z,3.00
2022-08-31T00:51:36.192Z,2.90
2022-08-31T00:54:10.892Z,2.70
2022-08-31T00:56:44.884Z,2.90
2022-08-31T00:59:19.021Z,2.70
2022-08-31T01:01:51.723Z,2.80
2022-08-31T01:04:23.926Z,3.00
2022-08-31T01:06:56.086Z,3.60
2022-08-31T01:09:31.593Z,3.60
2022-08-31T01:12:04.020Z,3.20
2022-08-31T01:14:36.906Z,3.10
2022-08-31T01:17:10.930Z,3.50
2022-08-31T01:19:47.406Z,2.80
2022-08-31T01:22:27.886Z,3.30
2022-08-31T01:25:00.997Z,3.10
2022-08-31T01:27:36.215Z,3.00
2022-08-31T01:30:12.295Z,3.80
2022-08-31T01:32:43.967Z,3.10
2022-08-31T01:35:15.932Z,3.30
2022-08-31T01:37:48.696Z,3.70
2022-08-31T01:40:20.737Z,3.20
2022-08-31T01:42:52.546Z,4.20
2022-08-31T01:45:24.398Z,4.80
2022-08-31T01:47:56.167Z,3.10
2022-08-31T01:50:30.314Z,3.30
2022-08-31T01:53:02.772Z,3.50
2022-08-31T01:55:35.098Z,5.20
2022-08-31T01:58:08.194Z,3.70
2022-08-31T02:01:32.878Z,3.80
2022-08-31T02:04:08.385Z,3.80
2022-08-31T02:06:42.100Z,3.50
2022-08-31T02:09:14.551Z,4.40
2022-08-31T02:11:47.889Z,5.00
2022-08-31T02:14:20.884Z,4.70
2022-08-31T02:16:52.787Z,3.80
2022-08-31T02:19:24.493Z,4.30
2022-08-31T02:21:56.201Z,4.20
2022-08-31T02:24:28.085Z,5.10
2022-08-31T02:27:01.099Z,5.00
2022-08-31T02:29:32.862Z,4.00
2022-08-31T02:32:05.135Z,4.00
2022-08-31T02:34:37.005Z,3.80
2022-08-31T02:37:11.032Z,3.90
2022-08-31T02:39:43.216Z,4.10
2022-08-31T02:42:15.418Z,3.40
2022-08-31T02:44:50.156Z,3.60
2022-08-31T02:47:22.133Z,3.50
2022-08-31T02:50:09.988Z,3.80
2022-08-31T02:52:41.816Z,3.60
2022-08-31T02:55:14.076Z,3.90
2022-08-31T02:57:45.787Z,3.70
2022-08-31T03:00:18.804Z,3.70
2022-08-31T03:02:51.238Z,4.20
2022-08-31T03:05:23.362Z,4.80
2022-08-31T03:07:55.414Z,3.80
2022-08-31T03:10:28.760Z,3.50
2022-08-31T03:13:00.845Z,4.00
2022-08-31T03:15:32.881Z,3.50
2022-08-31T03:18:07.120Z,3.30
2022-08-31T03:20:39.935Z,3.80
2022-08-31T03:23:13.003Z,4.10
2022-08-31T03:25:44.801Z,3.60
2022-08-31T03:28:17.230Z,2.90
2022-08-31T03:31:01.160Z,3.60
2022-08-31T03:33:32.969Z,3.90
2022-08-31T03:36:05.764Z,3.20
2022-08-31T03:38:37.611Z,3.50
2022-08-31T03:41:09.930Z,3.40
2022-08-31T03:43:41.746Z,4.00
2022-08-31T03:46:15.316Z,3.50
2022-08-31T03:48:48.805Z,3.60
2022-08-31T03:51:21.290Z,3.70
2022-08-31T03:53:54.298Z,2.90
2022-08-31T03:56:26.049Z,4.00
2022-08-31T03:58:57.837Z,3.90
2022-08-31T04:01:52.755Z,2.90
2022-08-31T04:04:43.064Z,3.20
2022-08-31T04:07:38.391Z,3.50
2022-08-31T04:10:52.547Z,3.50
2022-08-31T04:14:00.192Z,3.30
2022-08-31T04:16:50.288Z,3.80
2022-08-31T04:19:40.300Z,3.40
2022-08-31T04:22:22.467Z,4.00
2022-08-31T04:25:18.287Z,4.00
2022-08-31T04:27:56.659Z,3.00
2022-08-31T04:30:31.365Z,3.50
2022-08-31T04:33:05.129Z,3.60
2022-08-31T04:35:37.469Z,3.70
2022-08-31T04:38:12.173Z,3.50
2022-08-31T04:40:45.884Z,3.80
2022-08-31T04:43:18.096Z,3.70
2022-08-31T04:45:50.094Z,3.60
2022-08-31T04:48:22.742Z,4.00
2022-08-31T04:51:02.804Z,3.10
2022-08-31T04:53:36.239Z,3.80
2022-08-31T04:56:14.610Z,3.80
2022-08-31T04:58:49.576Z,3.60
2022-08-31T05:01:25.902Z,3.90
2022-08-31T05:04:17.086Z,3.40
2022-08-31T05:06:49.924Z,4.20
2022-08-31T05:09:24.475Z,3.50
2022-08-31T05:11:58.594Z,3.80
2022-08-31T05:14:30.773Z,3.40
2022-08-31T05:17:14.898Z,3.20
2022-08-31T05:19:48.852Z,4.70
2022-08-31T05:22:20.925Z,3.60
2022-08-31T05:27:24.131Z,3.60
2022-08-31T05:29:57.305Z,2.50
2022-08-31T05:32:47.134Z,3.30
2022-08-31T05:35:19.356Z,3.60
2022-08-31T05:37:52.620Z,3.40
2022-08-31T05:40:24.923Z,5.10
2022-08-31T05:42:59.462Z,3.50
2022-08-31T05:45:31.455Z,3.70
2022-08-31T05:48:03.421Z,4.00
2022-08-31T05:50:37.111Z,3.60
2022-08-31T05:53:11.208Z,3.40
2022-08-31T05:55:43.759Z,3.60
2022-08-31T05:58:15.876Z,3.70
2022-08-31T06:00:47.670Z,3.10
2022-08-31T06:03:48.385Z,3.50
2022-08-31T06:06:20.259Z,3.50
2022-08-31T06:11:26.576Z,3.80
2022-08-31T06:14:01.154Z,3.40
2022-08-31T06:16:34.011Z,4.00
2022-08-31T06:19:08.284Z,4.10
2022-08-31T06:21:50.187Z,3.30
2022-08-31T06:24:28.361Z,3.20
2022-08-31T06:27:01.673Z,3.50
2022-08-31T06:29:36.117Z,3.20
2022-08-31T06:32:10.179Z,3.50
2022-08-31T06:34:47.404Z,3.00
2022-08-31T06:37:37.986Z,3.50
2022-08-31T06:40:39.573Z,3.30
2022-08-31T06:43:27.821Z,2.80
2022-08-31T06:46:03.807Z,3.10
2022-08-31T06:49:08.989Z,3.10
2022-08-31T06:51:41.121Z,3.20
2022-08-31T06:54:29.441Z,3.90
2022-08-31T06:57:35.561Z,3.80
2022-08-31T07:00:26.868Z,3.00
2022-08-31T07:06:14.431Z,2.70
2022-08-31T07:08:48.406Z,2.70
2022-08-31T07:11:23.733Z,2.90
2022-08-31T07:13:57.498Z,2.70
2022-08-31T07:16:31.519Z,2.20
2022-08-31T07:19:06.408Z,2.30
2022-08-31T07:21:44.772Z,2.90
2022-08-31T07:24:24.211Z,2.50
2022-08-31T07:26:59.853Z,2.10
2022-08-31T07:29:42.262Z,2.00
2022-08-31T07:32:18.447Z,2.00
2022-08-31T07:34:57.400Z,3.20
2022-08-31T07:38:04.683Z,2.00
2022-08-31T07:40:58.006Z,1.80
2022-08-31T07:43:30.173Z,2.30
2022-08-31T07:46:01.959Z,2.40
2022-08-31T07:48:36.797Z,2.80
2022-08-31T07:51:18.026Z,1.70
2022-08-31T07:53:57.673Z,2.50
2022-08-31T07:56:34.965Z,2.20
2022-08-31T07:59:20.121Z,1.90
2022-08-31T08:01:55.639Z,1.40
2022-08-31T08:04:31.234Z,1.80
2022-08-31T08:07:35.348Z,2.50
2022-08-31T08:10:24.207Z,1.80
2022-08-31T08:13:12.689Z,2.20
2022-08-31T08:15:56.266Z,1.80
2022-08-31T08:18:47.905Z,1.90
2022-08-31T08:21:23.676Z,1.70
2022-08-31T08:23:56.940Z,2.50
2022-08-31T08:26:55.003Z,2.00
2022-08-31T08:29:53.149Z,1.70
2022-08-31T08:32:31.506Z,1.50
2022-08-31T08:35:03.689Z,1.70
2022-08-31T08:37:57.239Z,1.70
2022-08-31T08:40:37.302Z,1.60
2022-08-31T08:43:12.082Z,1.40
2022-08-31T08:45:46.646Z,1.60
2022-08-31T08:48:23.098Z,2.00
2022-08-31T08:50:55.680Z,1.30
2022-08-31T08:53:42.192Z,1.50
2022-08-31T08:56:47.629Z,1.30
2022-08-31T08:59:22.701Z,1.30
2022-08-31T09:01:58.124Z,1.50
2022-08-31T09:04:50.249Z,2.00
2022-08-31T09:07:56.325Z,1.10
2022-08-31T09:10:36.818Z,1.20
2022-08-31T09:13:21.639Z,1.50
2022-08-31T09:16:04.585Z,1.10
2022-08-31T09:18:46.546Z,1.50
2022-08-31T09:21:23.553Z,1.10
2022-08-31T09:24:02.399Z,0.90
2022-08-31T09:27:02.186Z,1.10
2022-08-31T09:29:45.229Z,1.50
2022-08-31T09:32:26.244Z,1.00
2022-08-31T09:35:01.755Z,1.00
2022-08-31T09:37:40.464Z,1.30
2022-08-31T09:40:23.761Z,1.30
2022-08-31T09:43:06.918Z,0.80
2022-08-31T09:45:42.702Z,1.30
2022-08-31T09:48:14.597Z,0.90
2022-08-31T09:50:47.585Z,1.30
2022-08-31T09:53:42.586Z,1.00
2022-08-31T09:56:19.909Z,1.20
2022-08-31T09:58:57.100Z,1.20
2022-08-31T10:01:35.112Z,1.40
2022-08-31T10:04:21.019Z,1.20
2022-08-31T10:07:01.815Z,1.10
2022-08-31T10:09:38.431Z,1.10
2022-08-31T10:12:16.237Z,1.10
2022-08-31T10:14:54.072Z,1.10
2022-08-31T10:17:32.482Z,1.50
2022-08-31T10:20:12.821Z,1.40
2022-08-31T10:22:50.363Z,1.20
2022-08-31T10:25:29.100Z,0.90
2022-08-31T10:28:09.686Z,1.10
2022-08-31T10:30:48.930Z,1.00
2022-08-31T10:33:46.309Z,1.40
2022-08-31T10:36:20.631Z,1.00
2022-08-31T10:38:54.210Z,1.10
2022-08-31T10:41:32.535Z,1.10
2022-08-31T10:44:16.994Z,1.20
2022-08-31T10:46:50.422Z,1.60
2022-08-31T10:49:22.750Z,1.30
2022-08-31T10:52:03.483Z,1.20
2022-08-31T10:54:44.051Z,0.90
2022-08-31T10:57:32.476Z,1.00
2022-08-31T11:00:09.529Z,1.40
2022-08-31T11:02:57.029Z,1.10
2022-08-31T11:05:38.598Z,0.80
2022-08-31T11:08:31.150Z,1.40
2022-08-31T11:11:06.145Z,1.00
2022-08-31T11:13:53.837Z,0.80
2022-08-31T11:16:40.708Z,1.00
2022-08-31T11:19:28.981Z,1.00
2022-08-31T11:22:37.577Z,1.30
2022-08-31T11:25:39.178Z,1.00
2022-08-31T11:28:23.607Z,1.00
2022-08-31T11:30:56.171Z,1.30
2022-08-31T11:33:31.266Z,1.50
2022-08-31T11:36:08.775Z,1.40
2022-08-31T11:38:54.594Z,1.40
2022-08-31T11:41:46.860Z,1.10
2022-08-31T11:44:48.257Z,1.30
2022-08-31T11:47:38.314Z,1.20
2022-08-31T11:50:43.476Z,1.10
2022-08-31T11:53:25.397Z,1.50
2022-08-31T11:56:04.097Z,0.90
2022-08-31T11:58:39.829Z,1.00
2022-08-31T12:01:35.504Z,1.30
2022-08-31T12:04:28.125Z,1.20
2022-08-31T12:07:05.190Z,1.30
2022-08-31T12:10:27.502Z,1.00
2022-08-31T12:13:18.899Z,1.00
2022-08-31T12:16:06.820Z,1.30
2022-08-31T12:18:51.838Z,1.30
2022-08-31T12:21:48.602Z,0.80
2022-08-31T12:24:32.580Z,1.30
2022-08-31T12:27:33.303Z,1.20
2022-08-31T12:30:25.872Z,0.90
2022-08-31T12:33:05.397Z,1.00
2022-08-31T12:35:37.302Z,1.10
2022-08-31T12:38:11.387Z,0.80
2022-08-31T12:40:47.983Z,1.00
2022-08-31T12:43:22.392Z,1.20
2022-08-31T12:46:09.989Z,1.10
2022-08-31T12:49:07.705Z,1.20
2022-08-31T12:51:49.130Z,1.90
2022-08-31T12:54:45.747Z,1.70
2022-08-31T12:57:36.511Z,1.20
2022-08-31T13:00:20.585Z,1.40
2022-08-31T13:02:56.957Z,1.50
2022-08-31T13:05:34.143Z,1.30
2022-08-31T13:08:22.511Z,0.90
2022-08-31T13:10:54.447Z,1.20
2022-08-31T13:13:29.096Z,1.40
2022-08-31T13:16:04.717Z,1.80
2022-08-31T13:18:37.367Z,1.70
2022-08-31T13:21:10.930Z,1.40
2022-08-31T13:23:48.131Z,2.00
2022-08-31T13:26:23.684Z,1.70
2022-08-31T13:28:57.690Z,1.80
2022-08-31T13:31:31.752Z,2.00
2022-08-31T13:34:07.505Z,1.60
2022-08-31T13:36:44.034Z,1.40
2022-08-31T13:39:24.575Z,2.00
2022-08-31T13:42:05.968Z,1.50
2022-08-31T13:44:40.333Z,1.10
2022-08-31T13:47:21.324Z,2.00
2022-08-31T13:50:05.084Z,1.00
2022-08-31T13:52:38.474Z,0.90
2022-08-31T13:55:13.594Z,0.90
2022-08-31T13:58:00.381Z,1.30
2022-08-31T14:00:41.694Z,1.20
2022-08-31T14:03:41.057Z,1.40
2022-08-31T14:06:33.933Z,1.00
2022-08-31T14:11:54.230Z,1.20
2022-08-31T14:14:29.837Z,1.50
2022-08-31T14:17:04.657Z,1.70
2022-08-31T14:19:39.270Z,0.90
2022-08-31T14:22:32.426Z,1.10
2022-08-31T14:25:05.128Z,1.70
2022-08-31T14:27:43.194Z,0.90
2022-08-31T14:30:15.799Z,1.00
2022-08-31T14:35:18.148Z,1.10
2022-08-31T14:37:49.874Z,1.50
2022-08-31T14:40:22.022Z,1.70
2022-08-31T14:42:53.968Z,3.60
2022-08-31T14:45:25.807Z,4.30
2022-08-31T14:47:59.900Z,2.00
2022-08-31T14:50:31.865Z,2.40
2022-08-31T14:53:08.470Z,1.10
2022-08-31T14:55:42.100Z,2.50
2022-08-31T14:58:15.935Z,1.30
2022-08-31T15:00:53.182Z,1.20
2022-08-31T15:03:32.622Z,1.50
2022-08-31T15:06:05.592Z,1.10
2022-08-31T15:08:39.030Z,1.90
2022-08-31T15:11:11.149Z,1.20
2022-08-31T15:13:43.215Z,1.10
2022-08-31T15:16:14.996Z,2.70
2022-08-31T15:18:47.370Z,1.10
2022-08-31T15:21:19.135Z,1.50
2022-08-31T15:23:51.177Z,1.50
2022-08-31T15:26:23.649Z,1.40
2022-08-31T15:28:57.006Z,1.20
2022-08-31T15:31:30.157Z,1.00
2022-08-31T15:34:02.004Z,1.20
2022-08-31T15:36:36.627Z,1.90
2022-08-31T15:39:08.422Z,1.40
2022-08-31T15:41:42.160Z,1.20
2022-08-31T15:44:14.320Z,1.10
2022-08-31T15:47:04.312Z,1.20
2022-08-31T15:49:37.641Z,1.20
2022-08-31T15:52:12.051Z,1.40
2022-08-31T15:54:44.067Z,1.90
2022-08-31T15:57:15.941Z,1.60
2022-08-31T15:59:47.931Z,1.40
2022-08-31T16:02:22.928Z,0.90
2022-08-31T16:04:57.729Z,1.40
2022-08-31T16:07:29.481Z,1.50
2022-08-31T16:10:01.177Z,1.20
2022-08-31T16:12:34.987Z,2.30
2022-08-31T16:15:09.913Z,1.30
2022-08-31T16:17:44.964Z,1.50
2022-08-31T16:20:17.983Z,1.70
2022-08-31T16:22:49.760Z,2.00
2022-08-31T16:25:21.572Z,1.70
2022-08-31T16:27:57.779Z,1.60
2022-08-31T16:30:32.618Z,1.70
2022-08-31T16:33:04.463Z,2.30
2022-08-31T16:35:37.380Z,2.00
2022-08-31T16:38:09.813Z,1.80
2022-08-31T16:40:42.712Z,2.10
2022-08-31T16:43:15.547Z,1.50
2022-08-31T16:45:47.969Z,1.70
2022-08-31T16:48:37.176Z,1.70
2022-08-31T16:51:15.053Z,1.50
2022-08-31T16:53:47.854Z,1.80
2022-08-31T16:56:20.948Z,2.20
2022-08-31T16:58:53.439Z,1.60
2022-08-31T17:01:28.905Z,1.70
2022-08-31T17:04:03.240Z,1.60
2022-08-31T17:06:37.143Z,2.80
2022-08-31T17:09:14.562Z,2.00
2022-08-31T17:11:48.452Z,1.70
2022-08-31T17:14:23.872Z,2.00
2022-08-31T17:16:55.884Z,2.00
2022-08-31T17:19:29.278Z,1.50
2022-08-31T17:22:04.121Z,2.20
2022-08-31T17:24:38.937Z,1.60
2022-08-31T17:27:12.155Z,1.80
2022-08-31T17:29:48.174Z,1.70
2022-08-31T17:32:22.899Z,1.50
2022-08-31T17:34:56.042Z,1.70
2022-08-31T17:37:32.592Z,1.70
2022-08-31T17:40:07.872Z,1.50
2022-08-31T17:42:39.812Z,2.00
2022-08-31T17:45:13.673Z,2.10
2022-08-31T17:47:45.479Z,1.80
2022-08-31T17:50:21.180Z,1.60
2022-08-31T17:52:54.145Z,1.70
2022-08-31T17:55:27.008Z,2.40
2022-08-31T17:57:59.228Z,1.80
2022-08-31T18:00:32.717Z,2.70
2022-08-31T18:03:04.637Z,1.90
2022-08-31T18:05:37.322Z,2.70
2022-08-31T18:08:11.056Z,2.20
2022-08-31T18:10:43.559Z,1.70
2022-08-31T18:13:15.511Z,2.20
2022-08-31T18:15:49.307Z,3.30
2022-08-31T18:18:23.274Z,1.80
2022-08-31T18:20:56.151Z,1.90
2022-08-31T18:23:30.011Z,2.30
2022-08-31T18:26:05.174Z,2.10
2022-08-31T18:28:38.254Z,1.70
2022-08-31T18:31:28.081Z,1.70
2022-08-31T18:34:01.436Z,4.60
2022-08-31T18:36:38.551Z,3.50
2022-08-31T18:39:13.736Z,2.70
2022-08-31T18:42:03.581Z,3.90
2022-08-31T18:45:13.431Z,2.00
2022-08-31T18:50:55.203Z,1.70
2022-08-31T18:53:30.340Z,2.90
2022-08-31T18:56:11.836Z,2.70
2022-08-31T18:59:21.811Z,2.10
2022-08-31T19:02:02.761Z,2.40
2022-08-31T19:04:55.142Z,2.20
2022-08-31T19:07:47.790Z,3.40
2022-08-31T19:10:22.541Z,5.60
2022-08-31T19:12:55.917Z,3.10
2022-08-31T19:15:35.964Z,2.70
2022-08-31T19:18:48.624Z,2.30
2022-08-31T19:21:41.943Z,2.10
2022-08-31T19:24:22.232Z,3.70
2022-08-31T19:26:58.986Z,2.80
2022-08-31T19:30:09.799Z,2.30
2022-08-31T19:33:06.228Z,2.00
2022-08-31T19:35:47.155Z,2.50
2022-08-31T19:38:23.877Z,2.50
2022-08-31T19:41:22.639Z,1.90
2022-08-31T19:44:08.498Z,2.20
2022-08-31T19:47:30.212Z,1.90
2022-08-31T19:50:02.548Z,2.20
2022-08-31T19:52:37.494Z,2.10
2022-08-31T19:55:11.852Z,2.90
2022-08-31T19:57:58.274Z,2.10
2022-08-31T20:00:30.535Z,2.30
2022-08-31T20:03:19.610Z,2.60
2022-08-31T20:05:55.733Z,2.40
2022-08-31T20:09:00.390Z,2.60
2022-08-31T20:11:41.312Z,2.30
2022-08-31T20:14:26.342Z,2.80
2022-08-31T20:17:41.432Z,2.20
2022-08-31T20:20:29.815Z,2.10
2022-08-31T20:23:17.925Z,2.90
2022-08-31T20:26:26.114Z,3.30
2022-08-31T20:29:19.174Z,2.70
2022-08-31T20:31:55.360Z,2.80
2022-08-31T20:37:35.884Z,3.90
2022-08-31T20:40:47.220Z,2.50
2022-08-31T20:43:35.581Z,2.60
2022-08-31T20:50:11.623Z,2.70
2022-08-31T20:52:59.210Z,2.60
2022-08-31T20:55:48.789Z,2.50
2022-08-31T20:58:56.373Z,2.70
2022-08-31T21:01:45.083Z,3.00
2022-08-31T21:04:37.569Z,3.00
2022-08-31T21:07:23.121Z,2.70
2022-08-31T21:09:55.123Z,2.90
2022-08-31T21:12:28.083Z,2.70
2022-08-31T21:15:11.390Z,2.70
2022-08-31T21:17:45.896Z,2.80
2022-08-31T21:20:32.335Z,3.00
2022-08-31T21:23:16.963Z,2.80
2022-08-31T21:25:49.471Z,2.90
2022-08-31T21:28:31.505Z,2.90
2022-08-31T21:31:27.500Z,2.40
2022-08-31T21:34:22.145Z,2.90
2022-08-31T21:37:14.588Z,3.00
2022-08-31T21:40:08.582Z,3.00
2022-08-31T21:42:40.824Z,3.00
2022-08-31T21:45:15.653Z,4.40
2022-08-31T21:47:48.510Z,3.00
2022-08-31T21:52:59.658Z,2.70
2022-08-31T21:55:32.536Z,2.90
2022-08-31T21:58:04.563Z,3.90
2022-08-31T22:00:41.797Z,2.90
2022-08-31T22:03:14.830Z,2.90
2022-08-31T22:05:46.852Z,3.10
2022-08-31T22:08:20.020Z,3.00
2022-08-31T22:11:14.324Z,3.00
2022-08-31T22:14:25.891Z,3.80
2022-08-31T22:17:17.964Z,2.50
2022-08-31T22:19:51.920Z,2.20
2022-08-31T22:22:24.119Z,2.60
2022-08-31T22:24:56.940Z,2.50
2022-08-31T22:27:30.298Z,2.80
2022-08-31T22:30:04.592Z,2.30
2022-08-31T22:32:37.499Z,2.20
2022-08-31T22:35:11.139Z,2.20
2022-08-31T22:37:43.367Z,2.10
2022-08-31T22:40:20.001Z,2.30
2022-08-31T22:42:54.023Z,2.10
2022-08-31T22:45:26.241Z,2.20
2022-08-31T22:47:58.230Z,2.10
2022-08-31T22:50:33.096Z,2.00
2022-08-31T22:53:05.775Z,2.10
2022-08-31T22:55:41.353Z,2.50
2022-08-31T22:58:14.239Z,2.40
2022-08-31T23:00:48.174Z,2.40
2022-08-31T23:03:22.093Z,2.30
2022-08-31T23:05:55.360Z,2.20
2022-08-31T23:08:27.401Z,2.20
2022-08-31T23:10:59.387Z,2.50
2022-08-31T23:13:51.960Z,2.60
2022-08-31T23:16:26.662Z,3.50
2022-08-31T23:19:01.958Z,2.30
2022-08-31T23:21:36.189Z,2.20
2022-08-31T23:24:09.136Z,2.80
2022-08-31T23:26:41.780Z,2.50
2022-08-31T23:29:18.130Z,2.50
2022-08-31T23:31:51.928Z,2.90
2022-08-31T23:34:25.469Z,2.40
2022-08-31T23:36:57.540Z,2.60
2022-08-31T23:39:29.538Z,2.70
2022-08-31T23:42:01.836Z,2.70
2022-08-31T23:44:36.267Z,2.90
2022-08-31T23:47:08.340Z,2.50
2022-08-31T23:49:41.334Z,2.60
2022-08-31T23:52:20.597Z,3.00
2022-08-31T23:54:57.712Z,3.00
2022-08-31T23:57:33.484Z,3.10
